Address 0xe44f039bea5191f46c206cd1508dabe04f74ae08

 

Overview

Balance:
0.00360175631103726 BNB

BNB Value:
$1.22 (@ $337.82/BNB)

Token:
Txn Hash
Block
From
To
Value [Txn Fee]
0xbc13f79a3d6de6520b5274799be6d21e98f2c84b1b6a88ab154af3552220ea8b82440562021-06-12 21:52:2114 hrs 12 mins ago0xe44f039bea5191f46c206cd1508dabe04f74ae08OUT PancakeSwap: Router v20.002 BNB0.000850665
0xbeafa8197098cb776613bb95d41cb09e2b78c0881b0df6b8f2cbb09707798bc182435832021-06-12 21:28:3914 hrs 36 mins ago0xe44f039bea5191f46c206cd1508dabe04f74ae08OUT PancakeSwap: Router v20.027 BNB0.000882455
0x48e324f77d2672b76fc1d004af3123d18d1f669f44f685c88c185aecaa43dd4d82434932021-06-12 21:24:0914 hrs 40 mins ago0xecb38e8b125c2fdbca20c37289073f59cecc75d8 IN 0xe44f039bea5191f46c206cd1508dabe04f74ae080.027362279601637 BNB0.000105
0x73c35d3d0b9e54ab28f795acfda04661f23a2b90a1524a69b898f88780b68cbf82422272021-06-12 20:19:4715 hrs 44 mins ago0xe44f039bea5191f46c206cd1508dabe04f74ae08OUT PancakeSwap: Router v20.012 BNB0.004432085
0x6e8ade1b6ff9e9f44e89a45d0632894bd9e9fea99d446d94de42c5389557c8f382418852021-06-12 20:02:4116 hrs 1 min ago0xe44f039bea5191f46c206cd1508dabe04f74ae08OUT PancakeSwap: Router v20.01 BNB0.00061656
0x04d68eab50bfa01b126f243da9188f75cf56776aca2f46e62f58bf70f9142bbc82418242021-06-12 19:59:3816 hrs 5 mins ago0xe44f039bea5191f46c206cd1508dabe04f74ae08OUT PancakeSwap: Router v20.023 BNB0.00154444
0x7cccc204a50950b64ad6fb540dc3d20f669c8f0f7c337ef3475c1233f7957d6e82416432021-06-12 19:50:3516 hrs 14 mins ago0xecb38e8b125c2fdbca20c37289073f59cecc75d8 IN 0xe44f039bea5191f46c206cd1508dabe04f74ae080.057671774718838 BNB0.000105
0x804fddddc1ddeeb51d631f812d2d0d8493f1117f763aee7abd7585ec9aed06c281971872021-06-11 6:39:262 days 5 hrs ago0xe44f039bea5191f46c206cd1508dabe04f74ae08OUT 0x97f4e15606cf335b7a6daec2ba02449fb5da69c60 BNB0.00025524
0xab1c95a17df1f869ed93f17bad1eb8c3357af932a3082f73b4342962db6b4c4781275292021-06-08 20:23:124 days 15 hrs ago0xe44f039bea5191f46c206cd1508dabe04f74ae08OUT 0x10e76264489cdf4b4011f79086d0bb6b55775e790 BNB0.000255745
0xef894d42c30c1d1cf2a013ce058f4e995bb4aab14da2f9c577a622a5c1288d5881275042021-06-08 20:21:574 days 15 hrs ago0xe44f039bea5191f46c206cd1508dabe04f74ae08OUT 0x17d749d3e2ac204a07e19d8096d9a05c423ea3af0 BNB0.00052012
0x9f5ce6059fb673b54d6074f1df68c75f5e320b820d79280e3255e9e27cfd418281273902021-06-08 20:16:154 days 15 hrs ago0xe44f039bea5191f46c206cd1508dabe04f74ae08OUT PancakeSwap: Router v20.025 BNB0.00053657
0xcb792dc7740ff660fe23946a06036bb8eff0bf1420b305dfa447ad9bfef7250481273312021-06-08 20:13:184 days 15 hrs ago0xe44f039bea5191f46c206cd1508dabe04f74ae08OUT PancakeSwap: Router v20.027 BNB0.00089534
0x1c8d36712fbbecd0b9271737a5a1fbe70b2268db7ff117455fa2cef980a84f7081272532021-06-08 20:09:244 days 15 hrs ago0xecb38e8b125c2fdbca20c37289073f59cecc75d8 IN 0xe44f039bea5191f46c206cd1508dabe04f74ae080.055079339917731 BNB0.000105
0xe79158b3c594f65abef5d991f7d0f7e75a78edae879f14027869c8901b4d3d2880692282021-06-06 19:43:566 days 16 hrs ago0xe44f039bea5191f46c206cd1508dabe04f74ae08OUT 0x97f4e15606cf335b7a6daec2ba02449fb5da69c60 BNB0.00025524
0xef485ab0872fe7e8556fce79de60f1ac421904357e32e960705a5c0db3cea8f980559572021-06-06 8:38:397 days 3 hrs ago0xe44f039bea5191f46c206cd1508dabe04f74ae08OUT PancakeSwap: Router v20.001221642440626 BNB0.00063672
0xb25c67cd01561cf819d0c5603de2599ec3859e216bb9d1248f5cefa1765fc45e80362392021-06-05 16:11:037 days 19 hrs ago0xe44f039bea5191f46c206cd1508dabe04f74ae08OUT PancakeSwap: Router v20.005 BNB0.000891015
0xc7856b6adc96514893cf698f6f71a6c4bf87024e8fadd4eacba811698e6108de80250612021-06-05 6:50:388 days 5 hrs ago0xe44f039bea5191f46c206cd1508dabe04f74ae08OUT 0x7159b835cbeb8d01136d6cc321018b60ccec4b300 BNB0.000378325
0x4b41798841013b43050a824948929a512a9541bbdd50c35f86c8b762dab9d33480246652021-06-05 6:30:508 days 5 hrs ago0xe44f039bea5191f46c206cd1508dabe04f74ae08OUT PancakeSwap: Router v20.072 BNB0.00089534
0x813de77e134403997b1e98cfef5fd85745215cf539600655da65840511f1588580108302021-06-04 18:58:148 days 17 hrs ago0xe44f039bea5191f46c206cd1508dabe04f74ae08OUT PancakeSwap: Router v20 BNB0.00103496
0x62464a37cb1117dd3223b00687fc5fa6ea6048b9f4745755962b07558a7d85bc80108022021-06-04 18:56:508 days 17 hrs ago0xe44f039bea5191f46c206cd1508dabe04f74ae08OUT 0x17d749d3e2ac204a07e19d8096d9a05c423ea3af0 BNB0.00022274
0x9b551e91317e28ca1c4d0e1e9288fbc22e28f8b45272c6172f953a5344b98baa80089052021-06-04 17:21:208 days 18 hrs ago0xd32e9d5abf2f51e9e54d288b76d4c543a42053f0 IN 0xe44f039bea5191f46c206cd1508dabe04f74ae080.007682230675178 BNB0.000105
0x87bcb789f321dd97b46fc4f33b5306692a39e31eef0e8a488d5de35268fd2dfc80016142021-06-04 11:16:479 days 47 mins ago0xe44f039bea5191f46c206cd1508dabe04f74ae08OUT PancakeSwap: Router v20.0002 BNB0.000890955
0xde7c783cd53eb8423d771ec3b67bd7305822c938c2b4a9145b1b55e6b22d71a480015932021-06-04 11:15:449 days 48 mins ago0xe44f039bea5191f46c206cd1508dabe04f74ae08OUT PancakeSwap: Router v20.0002 BNB0.000965955
0x34365d535d50de07888b242b8aead7377bb5a5d7ddba3e7b56f498695f57536680010552021-06-04 10:48:509 days 1 hr ago0xe44f039bea5191f46c206cd1508dabe04f74ae08OUT PancakeSwap: Router v20.02 BNB0.00083492
0xde417258ed8088ce6d3bfc3daf45abf06bdd030efcae66c8c4220ccdff95a4dc80009512021-06-04 10:43:389 days 1 hr ago0xecb38e8b125c2fdbca20c37289073f59cecc75d8 IN 0xe44f039bea5191f46c206cd1508dabe04f74ae080.026036398894018 BNB0.000105
[ Download CSV Export 
Latest 6 internal transactions
Parent Txn Hash Block From To Value
0xef485ab0872fe7e8556fce79de60f1ac421904357e32e960705a5c0db3cea8f980559572021-06-06 8:38:397 days 3 hrs ago PancakeSwap: Router v20xe44f039bea5191f46c206cd1508dabe04f74ae080.000130890261495744 BNB
0x813de77e134403997b1e98cfef5fd85745215cf539600655da65840511f1588580108302021-06-04 18:58:148 days 17 hrs ago PancakeSwap: Router v20xe44f039bea5191f46c206cd1508dabe04f74ae080.07028070021976331 BNB
0x2e30b8862d4ffe63a0aa56b474a902f2f2a0ecab0b28a12217481c02f784e77179477672021-06-02 14:14:5110 days 21 hrs ago PancakeSwap: Router v20xe44f039bea5191f46c206cd1508dabe04f74ae080.024492127772409043 BNB
0x59f73aa1052e5e7f5bdad07aa9cb77e104d7c195cd1ab576bb28b08a8d94873977527892021-05-26 19:07:2917 days 16 hrs ago PancakeSwap: Router v20xe44f039bea5191f46c206cd1508dabe04f74ae080.005630873753664545 BNB
0x25c84b6c63c4e78fdece2cc2311cc37baa979061c0b745c05ebf249aafd4a4e274873652021-05-17 12:07:3926 days 23 hrs ago PancakeSwap: Router v20xe44f039bea5191f46c206cd1508dabe04f74ae080.021412151039706865 BNB
0x886b1eb0ca39105f8a7ca1fd41ca71e27f075139e6bf29ca653cfe6cac4d85dd73704302021-05-13 9:04:0831 days 3 hrs ago PancakeSwap: Router v20xe44f039bea5191f46c206cd1508dabe04f74ae080.02837513335897524 BNB
[ Download CSV Export 
Loading

Contract Name:
0 BNB

Compiler Version
0

Optimization Enabled:
0 BNB

Other Settings:
-NA-
Block Transaction Gas Used Reward
Age Block Fee Address BC Fee Address Voting Power Jailed Incoming
Block Uncle Number Difficulty Gas Used Reward
Loading
Loading
Make sure to use the "Vote Down" button for any spammy posts, and the "Vote Up" for interesting conversations.